Time;durP1;ratioP1;P1;durP2;ratioP2;P2;SDS_P1;SDS_P2;PMS_P1;PMS_P2;Temp;Humidity;BMP_temperature;BMP_pressure;BME280_temperature;BME280_humidity;BME280_pressure;Samples;Min_cycle;Max_cycle;Signal;HPM_P1;HPM_P2
2020/12/25 06:49:21;;;;;;;1999.90;999.90;;;0.30;99.90;;;;;;5105244;27;20588;-50
2020/12/25 06:51:48;;;;;;;1999.90;999.90;;;0.30;99.90;;;;;;5084230;28;20481;-49
2020/12/25 06:54:17;;;;;;;1999.90;999.90;;;0.30;99.90;;;;;;5085437;28;20188;-50
2020/12/25 06:56:44;;;;;;;1999.90;999.90;;;0.30;99.90;;;;;;5085832;28;20466;-50
2020/12/25 06:59:21;;;;;;;1999.90;999.90;;;0.40;99.90;;;;;;5082773;28;20505;-50
2020/12/25 07:01:47;;;;;;;1999.90;999.90;;;0.40;99.90;;;;;;5085267;28;20523;-49
2020/12/25 07:04:33;;;;;;;1999.90;999.90;;;0.40;99.90;;;;;;5085043;28;20541;-49
2020/12/25 07:07:04;;;;;;;1999.90;999.90;;;0.40;99.90;;;;;;5085303;28;20478;-49
2020/12/25 07:09:47;;;;;;;1999.90;999.90;;;0.40;99.90;;;;;;5085843;28;20952;-56
2020/12/25 07:12:14;;;;;;;1999.90;999.90;;;0.50;99.90;;;;;;5085124;28;21104;-50
2020/12/25 07:14:40;;;;;;;1999.90;999.90;;;0.50;99.90;;;;;;5085748;28;20490;-49
2020/12/25 07:17:06;;;;;;;1999.90;999.90;;;0.50;99.90;;;;;;5087380;28;20400;-50
2020/12/25 07:19:35;;;;;;;1999.90;999.90;;;0.50;99.90;;;;;;5085964;28;20447;-49
2020/12/25 07:22:01;;;;;;;1999.90;999.90;;;0.50;99.90;;;;;;5085086;28;20194;-50
2020/12/25 07:24:26;;;;;;;1999.90;999.90;;;0.50;99.90;;;;;;5081344;28;20431;-50
2020/12/25 07:26:55;;;;;;;1999.90;999.90;;;0.40;99.90;;;;;;5084223;28;20423;-51
2020/12/25 07:29:21;;;;;;;1999.90;999.90;;;0.40;99.90;;;;;;5079708;28;20201;-49
2020/12/25 07:31:49;;;;;;;1999.90;999.90;;;0.40;99.90;;;;;;5081046;28;20466;-49
2020/12/25 07:34:21;;;;;;;1999.90;999.90;;;0.40;99.90;;;;;;5086084;28;20449;-49
2020/12/25 07:36:51;;;;;;;1999.90;999.90;;;0.40;99.90;;;;;;5080623;28;20427;-51
2020/12/25 07:39:17;;;;;;;1999.90;999.90;;;0.40;99.90;;;;;;5083497;28;20801;-50
2020/12/25 07:41:44;;;;;;;1999.90;999.90;;;0.50;99.90;;;;;;5082645;28;20893;-51
2020/12/25 07:44:09;;;;;;;1999.90;999.90;;;0.40;99.90;;;;;;5083776;28;20433;-50
2020/12/25 07:46:37;;;;;;;1999.90;999.90;;;0.40;99.90;;;;;;5084331;28;20183;-51
2020/12/25 07:49:03;;;;;;;1999.90;999.90;;;0.40;99.90;;;;;;5081413;28;20216;-49
2020/12/25 07:51:30;;;;;;;1999.90;999.90;;;0.40;99.90;;;;;;5083188;28;20434;-50
2020/12/25 07:53:57;;;;;;;1999.90;999.90;;;0.40;99.90;;;;;;5085489;28;20189;-50
2020/12/25 07:56:26;;;;;;;1999.90;999.90;;;0.40;99.90;;;;;;5084187;28;20435;-50
2020/12/25 07:58:52;;;;;;;1999.90;999.90;;;0.40;99.90;;;;;;5079137;28;20459;-51
2020/12/25 08:01:19;;;;;;;1999.90;999.90;;;0.40;99.90;;;;;;5069816;28;20677;-50
2020/12/25 08:03:45;;;;;;;1999.90;999.90;;;0.40;99.90;;;;;;5067067;28;20490;-49
2020/12/25 08:06:13;;;;;;;1999.90;999.90;;;0.40;99.90;;;;;;5063042;28;20454;-49
2020/12/25 08:08:43;;;;;;;1999.90;999.90;;;0.40;99.90;;;;;;5058569;28;20223;-49
2020/12/25 08:11:10;;;;;;;1999.90;999.90;;;0.40;99.90;;;;;;5058887;28;20999;-50
2020/12/25 08:13:37;;;;;;;1999.90;999.90;;;0.30;99.90;;;;;;5064475;28;20441;-50
2020/12/25 08:16:04;;;;;;;1999.90;999.90;;;0.30;99.90;;;;;;5061391;28;20515;-48
2020/12/25 08:18:30;;;;;;;1999.90;999.90;;;0.30;99.90;;;;;;5071353;28;20450;-47
2020/12/25 08:20:57;;;;;;;1999.90;999.90;;;0.30;99.90;;;;;;5070570;28;20185;-47
2020/12/25 08:23:23;;;;;;;1999.90;999.90;;;0.30;99.90;;;;;;5063328;28;20191;-48
2020/12/25 08:25:54;;;;;;;1999.90;999.90;;;0.30;99.90;;;;;;5073092;28;20468;-48
2020/12/25 08:28:21;;;;;;;1999.90;999.90;;;0.30;99.90;;;;;;5070684;28;20222;-49
2020/12/25 08:30:47;;;;;;;1999.90;999.90;;;0.30;99.90;;;;;;5061355;28;20440;-48
2020/12/25 08:33:22;;;;;;;1999.90;999.90;;;0.30;99.90;;;;;;5071455;28;20562;-49
2020/12/25 08:35:47;;;;;;;1999.90;999.90;;;0.30;99.90;;;;;;5062073;28;20187;-48
2020/12/25 08:38:16;;;;;;;1999.90;999.90;;;0.30;99.90;;;;;;5066687;28;20461;-48
2020/12/25 08:40:43;;;;;;;1999.90;999.90;;;0.30;99.90;;;;;;5068573;28;20186;-48
2020/12/25 08:43:17;;;;;;;1999.90;999.90;;;0.40;99.90;;;;;;5069194;28;20431;-48
2020/12/25 08:45:58;;;;;;;1999.90;999.90;;;0.30;99.90;;;;;;5068516;28;20190;-47
2020/12/25 08:48:23;;;;;;;1999.90;999.90;;;0.40;99.90;;;;;;5065671;28;20479;-47
2020/12/25 08:50:49;;;;;;;1999.90;999.90;;;0.40;99.90;;;;;;5064966;28;20444;-47
2020/12/25 08:53:21;;;;;;;1999.90;999.90;;;0.40;99.90;;;;;;5063704;28;20182;-48
2020/12/25 08:55:54;;;;;;;1999.90;999.90;;;0.40;99.90;;;;;;5064249;28;20427;-49
2020/12/25 14:04:28;;;;;;;1999.90;999.90;;;0.50;99.90;;;;;;5041668;28;20621;-49
2020/12/25 14:06:53;;;;;;;1999.90;999.90;;;0.40;99.90;;;;;;5021149;28;20520;-48
2020/12/25 14:09:19;;;;;;;1999.90;999.90;;;0.40;99.90;;;;;;5026831;28;20293;-51
2020/12/25 14:11:44;;;;;;;1999.90;999.90;;;0.40;99.90;;;;;;5025655;28;20253;-49
2020/12/25 14:14:10;;;;;;;1999.90;999.90;;;0.40;99.90;;;;;;5026647;28;20194;-49
2020/12/25 14:16:36;;;;;;;1999.90;999.90;;;0.30;99.90;;;;;;5029923;28;20190;-48
2020/12/25 14:19:02;;;;;;;1999.90;999.90;;;0.30;99.90;;;;;;5032365;28;21093;-49
2020/12/25 14:21:34;;;;;;;1999.90;999.90;;;0.30;99.90;;;;;;5026349;28;20242;-49
2020/12/25 14:24:00;;;;;;;1999.90;999.90;;;0.40;99.90;;;;;;5025075;28;20217;-48
2020/12/25 14:26:26;;;;;;;1999.90;999.90;;;0.30;99.90;;;;;;5026088;28;20179;-49
2020/12/25 14:28:52;;;;;;;1999.90;999.90;;;0.30;99.90;;;;;;5021002;28;20207;-48
2020/12/25 14:31:17;;;;;;;1999.90;999.90;;;0.30;99.90;;;;;;5022845;28;20484;-49
2020/12/25 14:33:43;;;;;;;1999.90;999.90;;;0.30;99.90;;;;;;5019790;28;20194;-49
2020/12/25 14:36:11;;;;;;;1999.90;999.90;;;0.30;99.90;;;;;;5022492;28;20258;-49
2020/12/25 14:38:37;;;;;;;1999.90;999.90;;;0.30;99.90;;;;;;5021080;28;20218;-48
2020/12/25 14:41:04;;;;;;;1999.90;999.90;;;0.30;99.90;;;;;;5017607;28;20425;-49
2020/12/25 14:43:31;;;;;;;1999.90;999.90;;;0.30;99.90;;;;;;5018088;28;20676;-49
2020/12/25 14:45:57;;;;;;;1999.90;999.90;;;0.30;99.90;;;;;;5017825;28;20433;-48
2020/12/25 14:48:22;;;;;;;1999.90;999.90;;;0.30;99.90;;;;;;5025874;28;20461;-48
2020/12/25 14:50:48;;;;;;;1999.90;999.90;;;0.30;99.90;;;;;;5020977;28;20572;-48
2020/12/25 14:53:14;;;;;;;1999.90;999.90;;;0.20;99.90;;;;;;5022542;28;20179;-48
2020/12/25 14:55:40;;;;;;;1999.90;999.90;;;0.20;99.90;;;;;;5026874;28;20702;-48
2020/12/25 14:58:05;;;;;;;1999.90;999.90;;;0.20;99.90;;;;;;5026436;28;20203;-48
2020/12/25 15:00:31;;;;;;;1999.90;999.90;;;0.10;99.90;;;;;;5026831;28;20186;-48
2020/12/25 15:02:56;;;;;;;1999.90;999.90;;;0.10;99.90;;;;;;5026315;28;20239;-48
2020/12/25 15:05:22;;;;;;;1999.90;999.90;;;0.10;99.90;;;;;;5035785;28;20189;-47
2020/12/25 15:07:48;;;;;;;1999.90;999.90;;;0.10;99.90;;;;;;5028984;28;20190;-47
2020/12/25 15:10:13;;;;;;;1999.90;999.90;;;0.10;99.90;;;;;;5026229;28;20167;-48
2020/12/25 15:12:39;;;;;;;1999.90;999.90;;;0.10;99.90;;;;;;5027892;28;20683;-48
2020/12/25 15:15:05;;;;;;;1999.90;999.90;;;0.10;99.90;;;;;;5036102;28;20246;-48
2020/12/25 15:17:31;;;;;;;1999.90;999.90;;;0.10;99.90;;;;;;5033197;28;20202;-48
2020/12/25 15:19:56;;;;;;;1999.90;999.90;;;0.10;99.90;;;;;;5015738;28;20501;-48
2020/12/25 15:22:22;;;;;;;1999.90;999.90;;;0.10;99.90;;;;;;5012684;28;20204;-48
2020/12/25 15:24:48;;;;;;;1999.90;999.90;;;0.10;99.90;;;;;;5011968;28;20229;-48
2020/12/25 15:27:13;;;;;;;1999.90;999.90;;;0.10;99.90;;;;;;5013043;28;20649;-48
2020/12/25 15:29:39;;;;;;;1999.90;999.90;;;0.10;99.90;;;;;;5013165;28;20330;-48
2020/12/25 15:32:05;;;;;;;1999.90;999.90;;;0.10;99.90;;;;;;5012680;28;20571;-47
2020/12/25 15:34:30;;;;;;;1999.90;999.90;;;0.00;99.90;;;;;;5015516;28;20188;-48
2020/12/25 15:37:00;;;;;;;1999.90;999.90;;;0.00;99.90;;;;;;5032381;28;20179;-48
2020/12/25 15:39:30;;;;;;;1999.90;999.90;;;0.00;99.90;;;;;;5025924;28;20204;-48
2020/12/25 15:41:56;;;;;;;1999.90;999.90;;;-0.10;99.90;;;;;;4999987;28;20419;-47
2020/12/25 15:44:22;;;;;;;1999.90;999.90;;;-0.10;99.90;;;;;;5008939;28;20482;-48
2020/12/25 15:46:50;;;;;;;1999.90;999.90;;;-0.20;99.90;;;;;;5013219;28;20458;-48
2020/12/25 15:49:16;;;;;;;1999.90;999.90;;;-0.20;99.90;;;;;;5012551;28;20685;-48
2020/12/25 15:51:42;;;;;;;1999.90;999.90;;;-0.30;99.90;;;;;;5015348;28;20430;-48
2020/12/25 15:54:08;;;;;;;1999.90;999.90;;;-0.40;99.90;;;;;;5005148;28;20987;-48
2020/12/25 15:56:33;;;;;;;1999.90;999.90;;;-0.50;99.90;;;;;;5007910;28;20184;-48
2020/12/25 15:58:59;;;;;;;1999.90;999.90;;;-0.50;99.90;;;;;;5012529;28;20235;-48
2020/12/25 16:01:29;;;;;;;1999.90;999.90;;;-0.50;99.90;;;;;;5012602;28;20584;-48
2020/12/25 16:03:55;;;;;;;1999.90;999.90;;;-0.60;99.90;;;;;;5012250;28;20207;-48
2020/12/25 16:06:20;;;;;;;1999.90;999.90;;;-0.70;99.90;;;;;;5027514;28;20610;-48
2020/12/25 16:08:46;;;;;;;1999.90;999.90;;;-0.70;99.90;;;;;;4993272;28;20219;-48
2020/12/25 16:11:12;;;;;;;1999.90;999.90;;;-0.80;99.90;;;;;;5009826;28;21114;-47
2020/12/25 16:13:37;;;;;;;1999.90;999.90;;;-0.80;99.90;;;;;;5010107;28;20922;-48
2020/12/25 16:16:03;;;;;;;1999.90;999.90;;;-0.80;99.90;;;;;;4994732;28;20579;-47
2020/12/25 16:18:28;;;;;;;1999.90;999.90;;;-0.80;99.90;;;;;;4992559;28;20287;-48
2020/12/25 16:20:54;;;;;;;1999.90;999.90;;;-0.70;99.90;;;;;;5001386;28;20179;-47
2020/12/25 16:23:20;;;;;;;1999.90;999.90;;;-0.70;99.90;;;;;;5007365;28;20227;-46
2020/12/25 16:25:46;;;;;;;1999.90;999.90;;;-0.70;99.90;;;;;;5010243;28;20415;-46
2020/12/25 16:28:11;;;;;;;1999.90;999.90;;;-0.60;99.90;;;;;;5005526;28;20203;-47
2020/12/25 16:30:37;;;;;;;1999.90;999.90;;;-0.60;99.90;;;;;;5004527;28;20572;-48
2020/12/25 16:33:03;;;;;;;1999.90;999.90;;;-0.60;99.90;;;;;;5003995;28;20259;-48
2020/12/25 16:35:28;;;;;;;1999.90;999.90;;;-0.60;99.90;;;;;;5001042;28;20220;-47
2020/12/25 16:37:54;;;;;;;1999.90;999.90;;;-0.70;99.90;;;;;;5000361;28;20970;-47
2020/12/25 16:40:19;;;;;;;1999.90;999.90;;;-0.70;99.90;;;;;;5007894;28;20206;-47
2020/12/25 16:42:45;;;;;;;1999.90;999.90;;;-0.70;99.90;;;;;;5011278;28;20451;-47
2020/12/25 16:45:11;;;;;;;1999.90;999.90;;;-0.70;99.90;;;;;;5011994;28;20262;-48
2020/12/25 16:47:36;;;;;;;1999.90;999.90;;;-0.70;99.90;;;;;;5011949;28;20694;-47
2020/12/25 16:50:05;;;;;;;1999.90;999.90;;;-0.70;99.90;;;;;;5003206;28;20426;-48
2020/12/25 16:52:34;;;;;;;1999.90;999.90;;;-0.60;99.90;;;;;;5001303;28;20683;-47
2020/12/25 16:55:00;;;;;;;1999.90;999.90;;;-0.60;99.90;;;;;;5010885;28;20497;-47
2020/12/25 16:57:25;;;;;;;1999.90;999.90;;;-0.60;99.90;;;;;;5006630;28;20479;-49
2020/12/25 16:59:51;;;;;;;1999.90;999.90;;;-0.50;99.90;;;;;;5006658;28;20303;-48
2020/12/25 17:02:17;;;;;;;1999.90;999.90;;;-0.60;99.90;;;;;;5000075;28;20184;-48
2020/12/25 17:04:42;;;;;;;1999.90;999.90;;;-0.50;99.90;;;;;;5006259;28;20179;-48
2020/12/25 17:07:08;;;;;;;1999.90;999.90;;;-0.50;99.90;;;;;;5009483;28;20262;-47
2020/12/25 17:09:34;;;;;;;1999.90;999.90;;;-0.50;99.90;;;;;;5004568;28;20208;-49
2020/12/25 17:12:00;;;;;;;1999.90;999.90;;;-0.40;99.90;;;;;;5009662;28;20202;-49
2020/12/25 17:14:25;;;;;;;1999.90;999.90;;;-0.40;99.90;;;;;;4999062;28;20200;-49
2020/12/25 17:16:51;;;;;;;1999.90;999.90;;;-0.50;99.90;;;;;;5000615;28;20183;-49
2020/12/25 17:19:17;;;;;;;1999.90;999.90;;;-0.60;99.90;;;;;;5006942;28;20952;-49
2020/12/25 17:21:43;;;;;;;1999.90;999.90;;;-0.60;99.90;;;;;;5007875;28;20185;-47
2020/12/25 17:24:10;;;;;;;1999.90;999.90;;;-0.60;99.90;;;;;;5003873;28;20687;-49
2020/12/25 17:26:35;;;;;;;1999.90;999.90;;;-0.60;99.90;;;;;;5007858;28;20478;-49
2020/12/25 17:29:01;;;;;;;1999.90;999.90;;;-0.50;99.90;;;;;;5009146;28;20459;-49
2020/12/25 17:31:27;;;;;;;1999.90;999.90;;;-0.60;99.90;;;;;;5005663;28;20707;-49
2020/12/25 17:33:53;;;;;;;1999.90;999.90;;;-0.60;99.90;;;;;;5005135;28;20179;-49
2020/12/25 17:36:18;;;;;;;1999.90;999.90;;;-0.60;99.90;;;;;;5000529;28;20220;-49
2020/12/25 17:38:45;;;;;;;1999.90;999.90;;;-0.60;99.90;;;;;;5000052;28;20477;-49
2020/12/25 17:41:12;;;;;;;1999.90;999.90;;;-0.60;99.90;;;;;;5007030;28;20180;-49
2020/12/25 17:43:39;;;;;;;1999.90;999.90;;;-0.60;99.90;;;;;;5012231;28;20486;-49
2020/12/25 17:46:09;;;;;;;1999.90;999.90;;;-0.60;99.90;;;;;;5003382;28;20487;-49
2020/12/25 17:48:35;;;;;;;1999.90;999.90;;;-0.70;99.90;;;;;;5010595;28;20450;-50
2020/12/25 17:51:04;;;;;;;1999.90;999.90;;;-0.60;99.90;;;;;;5000283;28;20442;-49
2020/12/25 17:53:32;;;;;;;1999.90;999.90;;;-0.60;99.90;;;;;;4999864;28;20427;-49
2020/12/25 17:55:59;;;;;;;1999.90;999.90;;;-0.70;99.90;;;;;;5012164;28;20792;-49
2020/12/25 17:58:24;;;;;;;1999.90;999.90;;;-0.70;99.90;;;;;;5008227;28;20466;-47
2020/12/25 18:00:50;;;;;;;1999.90;999.90;;;-0.70;99.90;;;;;;5010855;28;20797;-48
2020/12/25 18:03:16;;;;;;;1999.90;999.90;;;-0.60;99.90;;;;;;5010819;28;20243;-50
2020/12/25 18:05:41;;;;;;;1999.90;999.90;;;-0.50;99.90;;;;;;5009555;28;20633;-49
2020/12/25 18:08:07;;;;;;;1999.90;999.90;;;-0.50;99.90;;;;;;5005293;28;20208;-49
2020/12/25 18:10:32;;;;;;;1999.90;999.90;;;-0.50;99.90;;;;;;5001304;28;20181;-48
2020/12/25 18:12:58;;;;;;;1999.90;999.90;;;-0.40;99.90;;;;;;5007324;28;20179;-49
2020/12/25 18:15:23;;;;;;;1999.90;999.90;;;-0.40;99.90;;;;;;5008182;28;20582;-49
2020/12/25 18:17:49;;;;;;;1999.90;999.90;;;-0.40;99.90;;;;;;4998123;28;20274;-49
2020/12/25 18:20:15;;;;;;;1999.90;999.90;;;-0.40;99.90;;;;;;5004541;28;20550;-47
2020/12/25 18:22:40;;;;;;;1999.90;999.90;;;-0.40;99.90;;;;;;5005418;28;20223;-49
2020/12/25 18:25:06;;;;;;;1999.90;999.90;;;-0.50;99.90;;;;;;5002702;28;20183;-49
2020/12/25 18:27:32;;;;;;;1999.90;999.90;;;-0.50;99.90;;;;;;4996917;28;20184;-49
2020/12/25 18:29:57;;;;;;;1999.90;999.90;;;-0.50;99.90;;;;;;4996746;28;20210;-48
2020/12/25 18:32:23;;;;;;;1999.90;999.90;;;-0.50;99.90;;;;;;4997966;28;20184;-49
2020/12/25 18:34:48;;;;;;;1999.90;999.90;;;-0.50;99.90;;;;;;4996894;28;20369;-49
2020/12/25 18:37:14;;;;;;;1999.90;999.90;;;-0.50;99.90;;;;;;4999810;28;20184;-49
2020/12/25 18:39:40;;;;;;;1999.90;999.90;;;-0.50;99.90;;;;;;4998783;28;20573;-48
2020/12/25 18:42:09;;;;;;;1999.90;999.90;;;-0.50;99.90;;;;;;5001333;28;20176;-47
2020/12/25 18:44:35;;;;;;;1999.90;999.90;;;-0.50;99.90;;;;;;5000642;28;20200;-49
2020/12/25 18:47:01;;;;;;;1999.90;999.90;;;-0.60;99.90;;;;;;4999097;28;20512;-49
2020/12/25 18:49:27;;;;;;;1999.90;999.90;;;-0.50;99.90;;;;;;4993370;28;20980;-49
2020/12/25 18:51:53;;;;;;;1999.90;999.90;;;-0.50;99.90;;;;;;5011340;28;20442;-49
2020/12/25 18:54:18;;;;;;;1999.90;999.90;;;-0.50;99.90;;;;;;5007328;28;20234;-48
2020/12/25 18:56:44;;;;;;;1999.90;999.90;;;-0.50;99.90;;;;;;5004096;28;20307;-49
2020/12/25 18:59:09;;;;;;;1999.90;999.90;;;-0.50;99.90;;;;;;5002599;28;20204;-49
2020/12/25 19:01:35;;;;;;;1999.90;999.90;;;-0.60;99.90;;;;;;5006511;28;20649;-48
2020/12/25 19:04:01;;;;;;;1999.90;999.90;;;-0.60;99.90;;;;;;5007344;28;20219;-48
2020/12/25 19:06:27;;;;;;;1999.90;999.90;;;-0.60;99.90;;;;;;5014105;28;20178;-49
2020/12/25 19:08:52;;;;;;;1999.90;999.90;;;-0.60;99.90;;;;;;5020830;28;20203;-49
2020/12/25 19:11:20;;;;;;;1999.90;999.90;;;-0.60;99.90;;;;;;5013463;28;20449;-49
2020/12/25 19:13:45;;;;;;;1999.90;999.90;;;-0.60;99.90;;;;;;5003956;28;20180;-49
2020/12/25 19:16:11;;;;;;;1999.90;999.90;;;-0.60;99.90;;;;;;5004477;28;20522;-49
2020/12/25 19:18:36;;;;;;;1999.90;999.90;;;-0.70;99.90;;;;;;4996393;28;20199;-49
2020/12/25 19:21:03;;;;;;;1999.90;999.90;;;-0.70;99.90;;;;;;5013122;28;20732;-49
2020/12/25 19:23:29;;;;;;;1999.90;999.90;;;-0.70;99.90;;;;;;4999596;28;20212;-48
2020/12/25 19:25:54;;;;;;;1999.90;999.90;;;-0.70;99.90;;;;;;5001950;28;20431;-50
2020/12/25 19:28:20;;;;;;;1999.90;999.90;;;-0.70;99.90;;;;;;4997977;28;20234;-49
2020/12/25 19:30:49;;;;;;;1999.90;999.90;;;-0.60;99.90;;;;;;5005238;28;20268;-48
2020/12/25 19:33:17;;;;;;;1999.90;999.90;;;-0.60;99.90;;;;;;5005938;28;20243;-48
2020/12/25 19:35:43;;;;;;;1999.90;999.90;;;-0.60;99.90;;;;;;5004562;28;20430;-49
2020/12/25 19:38:09;;;;;;;1999.90;999.90;;;-0.60;99.90;;;;;;4999029;28;20463;-49
2020/12/25 19:40:35;;;;;;;1999.90;999.90;;;-0.50;99.90;;;;;;5009492;28;20934;-49
2020/12/25 19:43:00;;;;;;;1999.90;999.90;;;-0.60;99.90;;;;;;5003713;28;20211;-49
2020/12/25 19:45:26;;;;;;;1999.90;999.90;;;-0.60;99.90;;;;;;5006934;28;20566;-47
2020/12/25 19:47:52;;;;;;;1999.90;999.90;;;-0.60;99.90;;;;;;4996583;28;20200;-47
2020/12/25 19:50:17;;;;;;;1999.90;999.90;;;-0.50;99.90;;;;;;4994773;28;20220;-48
2020/12/25 19:52:43;;;;;;;1999.90;999.90;;;-0.60;99.90;;;;;;4996076;28;20690;-49
2020/12/25 19:55:09;;;;;;;1999.90;999.90;;;-0.60;99.90;;;;;;4996730;28;20192;-48
2020/12/25 19:57:34;;;;;;;1999.90;999.90;;;-0.60;99.90;;;;;;5003333;28;20188;-49
2020/12/25 20:00:01;;;;;;;1999.90;999.90;;;-0.60;99.90;;;;;;5003985;28;20214;-48
2020/12/25 20:02:27;;;;;;;1999.90;999.90;;;-0.60;99.90;;;;;;4998106;28;21056;-48
2020/12/25 20:04:52;;;;;;;1999.90;999.90;;;-0.50;99.90;;;;;;4995104;28;20479;-48
2020/12/25 20:07:19;;;;;;;1999.90;999.90;;;-0.50;99.90;;;;;;4995996;28;20550;-48
2020/12/25 20:09:44;;;;;;;1999.90;999.90;;;-0.50;99.90;;;;;;4993350;28;20240;-48
2020/12/25 20:12:10;;;;;;;1999.90;999.90;;;-0.50;99.90;;;;;;4993092;28;20463;-50
2020/12/25 20:14:36;;;;;;;1999.90;999.90;;;-0.50;99.90;;;;;;4999832;28;20192;-48
2020/12/25 20:17:02;;;;;;;1999.90;999.90;;;-0.50;99.90;;;;;;5005104;28;20422;-48
2020/12/25 20:19:27;;;;;;;1999.90;999.90;;;-0.50;99.90;;;;;;4997853;28;20201;-48
2020/12/25 20:21:53;;;;;;;1999.90;999.90;;;-0.60;99.90;;;;;;5003209;28;20569;-48
2020/12/25 20:24:19;;;;;;;1999.90;999.90;;;-0.60;99.90;;;;;;4997080;28;20584;-48
2020/12/25 20:26:48;;;;;;;1999.90;999.90;;;-0.50;99.90;;;;;;5007607;28;20246;-48
2020/12/25 20:29:14;;;;;;;1999.90;999.90;;;-0.50;99.90;;;;;;4998917;28;20203;-48
2020/12/25 20:31:41;;;;;;;1999.90;999.90;;;-0.40;99.90;;;;;;4998796;28;20433;-47
2020/12/25 20:34:06;;;;;;;1999.90;999.90;;;-0.40;99.90;;;;;;5002655;28;20577;-48
2020/12/25 20:36:32;;;;;;;1999.90;999.90;;;-0.50;99.90;;;;;;5008280;28;20473;-48
2020/12/25 20:38:59;;;;;;;1999.90;999.90;;;-0.60;99.90;;;;;;5013359;28;20398;-48
2020/12/25 20:41:25;;;;;;;1999.90;999.90;;;-0.50;99.90;;;;;;5013096;28;20188;-48
2020/12/25 20:43:50;;;;;;;1999.90;999.90;;;-0.50;99.90;;;;;;5011063;28;20464;-48
2020/12/25 20:46:16;;;;;;;1999.90;999.90;;;-0.60;99.90;;;;;;5009110;28;20246;-48
2020/12/25 20:48:42;;;;;;;1999.90;999.90;;;-0.60;99.90;;;;;;5006684;28;20196;-48
2020/12/25 20:51:13;;;;;;;1999.90;999.90;;;-0.60;99.90;;;;;;5001171;28;20879;-47
2020/12/25 20:53:39;;;;;;;1999.90;999.90;;;-0.70;99.90;;;;;;4998663;28;20275;-49
2020/12/25 20:56:08;;;;;;;1999.90;999.90;;;-0.70;99.90;;;;;;4996878;28;20471;-47
2020/12/25 20:58:34;;;;;;;1999.90;999.90;;;-0.70;99.90;;;;;;5001320;28;20465;-47
2020/12/25 21:01:01;;;;;;;1999.90;999.90;;;-0.70;99.90;;;;;;5003680;28;20795;-47
2020/12/25 21:03:27;;;;;;;1999.90;999.90;;;-0.70;99.90;;;;;;5003171;28;20463;-48
2020/12/25 21:05:53;;;;;;;1999.90;999.90;;;-0.70;99.90;;;;;;5005153;28;20435;-47
2020/12/25 21:08:18;;;;;;;1999.90;999.90;;;-0.60;99.90;;;;;;5002158;28;20474;-48
2020/12/25 21:10:44;;;;;;;1999.90;999.90;;;-0.70;99.90;;;;;;5003198;28;20569;-48
2020/12/25 21:13:10;;;;;;;1999.90;999.90;;;-0.60;99.90;;;;;;5001310;28;20668;-48
2020/12/25 21:15:36;;;;;;;1999.90;999.90;;;-0.70;99.90;;;;;;4998072;28;20192;-48
2020/12/25 21:18:02;;;;;;;1999.90;999.90;;;-0.60;99.90;;;;;;5000346;28;20848;-48
2020/12/25 21:20:28;;;;;;;1999.90;999.90;;;-0.60;99.90;;;;;;4999431;28;20450;-48
2020/12/25 21:22:54;;;;;;;1999.90;999.90;;;-0.50;99.90;;;;;;4998046;28;20848;-48
2020/12/25 21:25:20;;;;;;;1999.90;999.90;;;-0.60;99.90;;;;;;4995891;28;20287;-47
2020/12/25 21:27:46;;;;;;;1999.90;999.90;;;-0.60;99.90;;;;;;4997729;28;20180;-48
2020/12/25 21:30:12;;;;;;;1999.90;999.90;;;-0.60;99.90;;;;;;5004903;28;20443;-48
2020/12/25 21:32:37;;;;;;;1999.90;999.90;;;-0.60;99.90;;;;;;5004829;28;20192;-48
2020/12/25 21:35:03;;;;;;;1999.90;999.90;;;-0.60;99.90;;;;;;4995468;28;20215;-47
2020/12/25 21:37:29;;;;;;;1999.90;999.90;;;-0.60;99.90;;;;;;5002566;28;20220;-48
2020/12/25 21:39:55;;;;;;;1999.90;999.90;;;-0.60;99.90;;;;;;5005634;28;21859;-48
2020/12/25 21:42:20;;;;;;;1999.90;999.90;;;-0.60;99.90;;;;;;4997437;28;20184;-48
2020/12/25 21:44:46;;;;;;;1999.90;999.90;;;-0.60;99.90;;;;;;5001781;28;20184;-48
2020/12/25 21:47:11;;;;;;;1999.90;999.90;;;-0.60;99.90;;;;;;5001115;28;20548;-48
2020/12/25 21:49:37;;;;;;;1999.90;999.90;;;-0.60;99.90;;;;;;5001726;28;20211;-48
2020/12/25 21:52:04;;;;;;;1999.90;999.90;;;-0.60;99.90;;;;;;5001532;28;20638;-48
2020/12/25 21:54:30;;;;;;;1999.90;999.90;;;-0.60;99.90;;;;;;4998898;28;20619;-48
2020/12/25 21:56:56;;;;;;;1999.90;999.90;;;-0.60;99.90;;;;;;5002805;28;20528;-47
2020/12/25 21:59:22;;;;;;;1999.90;999.90;;;-0.60;99.90;;;;;;4995938;28;20215;-48
2020/12/25 22:01:48;;;;;;;1999.90;999.90;;;-0.60;99.90;;;;;;4994415;28;20455;-48
2020/12/25 22:04:14;;;;;;;1999.90;999.90;;;-0.70;99.90;;;;;;4997282;28;20467;-48
2020/12/25 22:06:40;;;;;;;1999.90;999.90;;;-0.70;99.90;;;;;;5003211;28;20195;-48
2020/12/25 22:09:06;;;;;;;1999.90;999.90;;;-0.70;99.90;;;;;;4999743;28;20199;-47
2020/12/25 22:11:35;;;;;;;1999.90;999.90;;;-0.70;99.90;;;;;;4997761;28;20457;-48
2020/12/25 22:14:01;;;;;;;1999.90;999.90;;;-0.80;99.90;;;;;;5000216;28;20211;-48
2020/12/25 22:16:27;;;;;;;1999.90;999.90;;;-0.70;99.90;;;;;;5000476;28;20478;-48
2020/12/25 22:18:54;;;;;;;1999.90;999.90;;;-0.70;99.90;;;;;;4997285;28;20490;-47
2020/12/25 22:21:38;;;;;;;1999.90;999.90;;;-0.70;99.90;;;;;;4998140;28;20446;-48
2020/12/25 22:24:05;;;;;;;1999.90;999.90;;;-0.70;99.90;;;;;;4995433;28;20466;-47
2020/12/25 22:26:30;;;;;;;1999.90;999.90;;;-0.80;99.90;;;;;;5002628;28;20426;-48
2020/12/25 22:28:56;;;;;;;1999.90;999.90;;;-0.80;99.90;;;;;;5000550;28;20455;-48
2020/12/25 22:31:33;;;;;;;1999.90;999.90;;;-0.80;99.90;;;;;;5009390;28;20211;-48
2020/12/25 22:33:59;;;;;;;1999.90;999.90;;;-0.80;99.90;;;;;;5006114;28;20517;-48
2020/12/25 22:36:26;;;;;;;1999.90;999.90;;;-0.80;99.90;;;;;;5002536;28;20444;-48
2020/12/25 22:38:52;;;;;;;1999.90;999.90;;;-0.70;99.90;;;;;;4995859;28;20481;-48
2020/12/25 22:41:25;;;;;;;1999.90;999.90;;;-0.80;99.90;;;;;;5000278;28;20475;-48
2020/12/25 22:43:51;;;;;;;1999.90;999.90;;;-0.80;99.90;;;;;;5003514;28;20466;-48
2020/12/25 22:46:25;;;;;;;1999.90;999.90;;;-0.80;99.90;;;;;;5001908;28;20442;-48
2020/12/25 22:48:51;;;;;;;1999.90;999.90;;;-0.90;99.90;;;;;;5007908;28;20888;-47
2020/12/25 22:51:16;;;;;;;1999.90;999.90;;;-0.90;99.90;;;;;;5007278;28;20511;-48
2020/12/25 22:53:42;;;;;;;1999.90;999.90;;;-0.80;99.90;;;;;;5007775;28;20204;-48
2020/12/25 22:56:07;;;;;;;1999.90;999.90;;;-0.80;99.90;;;;;;5014211;28;20190;-48
2020/12/25 22:58:33;;;;;;;1999.90;999.90;;;-0.80;99.90;;;;;;5002341;28;20466;-46
2020/12/25 23:00:58;;;;;;;1999.90;999.90;;;-0.80;99.90;;;;;;5005486;28;20188;-48
2020/12/25 23:03:25;;;;;;;1999.90;999.90;;;-0.70;99.90;;;;;;5001167;28;20945;-48
2020/12/25 23:05:50;;;;;;;1999.90;999.90;;;-0.80;99.90;;;;;;5001741;28;20222;-48
2020/12/25 23:08:16;;;;;;;1999.90;999.90;;;-0.90;99.90;;;;;;5003038;28;20486;-48
2020/12/25 23:10:42;;;;;;;1999.90;999.90;;;-0.90;99.90;;;;;;5002839;28;20211;-47
2020/12/25 23:13:07;;;;;;;1999.90;999.90;;;-0.90;99.90;;;;;;5009153;28;20200;-48
2020/12/25 23:15:33;;;;;;;1999.90;999.90;;;-0.80;99.90;;;;;;4997879;28;20251;-48
2020/12/25 23:17:58;;;;;;;1999.90;999.90;;;-0.80;99.90;;;;;;5000421;28;20235;-48
2020/12/25 23:20:24;;;;;;;1999.90;999.90;;;-0.80;99.90;;;;;;5011012;28;20286;-48
2020/12/25 23:22:49;;;;;;;1999.90;999.90;;;-0.90;99.90;;;;;;4996211;28;20684;-48
2020/12/25 23:25:15;;;;;;;1999.90;999.90;;;-0.90;99.90;;;;;;5002332;28;20298;-48
2020/12/25 23:27:41;;;;;;;1999.90;999.90;;;-0.90;99.90;;;;;;5004843;28;20435;-48
2020/12/25 23:30:07;;;;;;;1999.90;999.90;;;-0.90;99.90;;;;;;4995177;28;20184;-49
2020/12/25 23:32:32;;;;;;;1999.90;999.90;;;-0.90;99.90;;;;;;4993436;28;20250;-48
2020/12/25 23:34:58;;;;;;;1999.90;999.90;;;-0.90;99.90;;;;;;4997544;28;20192;-47
2020/12/25 23:37:24;;;;;;;1999.90;999.90;;;-1.00;99.90;;;;;;5011420;28;20207;-50
2020/12/25 23:39:50;;;;;;;1999.90;999.90;;;-1.00;99.90;;;;;;5003346;28;20478;-48
2020/12/25 23:42:16;;;;;;;1999.90;999.90;;;-1.00;99.90;;;;;;4997860;28;20498;-48
2020/12/25 23:44:41;;;;;;;1999.90;999.90;;;-1.00;99.90;;;;;;4997083;28;20664;-48
2020/12/25 23:47:07;;;;;;;1999.90;999.90;;;-1.10;99.90;;;;;;5013477;28;20180;-48
2020/12/25 23:49:32;;;;;;;1999.90;999.90;;;-1.10;99.90;;;;;;5001410;28;20204;-48
2020/12/25 23:51:58;;;;;;;1999.90;999.90;;;-1.10;99.90;;;;;;5001125;28;20640;-48